Icon-ios-app
Strava
Free app for Android and iPhone
Download

MTB Strava Segment Challenge

Ride Segment Monterey, CA
  • Distance 0.4km
  • Avg Grade 9%
  • Lowest Elev 244m
  • Highest Elev 284m
  • Elev Difference 40m
  • 3,733 Attempts By 1,919 People

Fastest Times

Piers S.
KOM 1:14 15 Apr 2016
Chantel Duliba
QOM 2:20 13 Apr 2014
Compare Efforts

Men's Leaderboard

Rank Name Speed Power Time
2 Scott S. 18.6km/h 583W 1:22
3 Chad Charlesworth 16.6km/h 505W 1:32
4 Tim G. 16.2km/h 499W 1:34
5 Jean Louis B. 15.5km/h 270W 1:38
6 Imeh N. 15.4km/h 355W 1:39
6 Alfred P. 15.4km/h 335W 1:39
9 Joe P. 15.2km/h 395W 1:40
9 Greg Hillson : Bar Fly 15.2km/h 384W Powermeter 1:40
9 Sean Bennett 15.2km/h 272W 1:40
14 Rick Cotter 15.1km/h - 1:41
14 Kurt Wolfgang 15.1km/h 377W 1:41
16 Steve H. 14.9km/h 382W 1:42
16 Raphael Auclair 14.9km/h 373W 1:42
16 Tofor Lewis 14.9km/h 315W 1:42
16 Burke K. 14.9km/h 321W 1:42
20 Brian G. 14.8km/h 308W 1:43

Join Strava to see the full leaderboard

Women's Leaderboard

Rank Name Speed Power Time
1 Chantel Duliba 10.9km/h 218W 2:20
2 Kris G. 10.6km/h 217W 2:23
3 Annie V. 10.6km/h 223W 2:24
4 C BaBomb 10.3km/h 220W 2:28
5 Caroline Dezendorf 10.2km/h 171W 2:30
6 Jane Kerner - Baghouse/Rock N' Road 10.1km/h 194W 2:31
6 Caro Gomez Villafañe 10.1km/h 180W 2:31
6 Tracy Gaucher 10.1km/h 129W 2:31
9 Maggie Yount 10.0km/h 165W 2:33
10 Amber B. 9.9km/h 211W Powermeter 2:34
11 Petra Kirberg 9.8km/h 190W 2:35
12 Lindsay C. 9.8km/h 174W 2:36
14 Beth Welliver 9.6km/h 176W 2:39
15 Julie S. 9.5km/h 135W 2:40
16 Naomi H. 9.5km/h 188W 2:41
16 lea davison 9.5km/h 202W 2:41
18 Cadence Lee 9.4km/h 184W 2:42
19 Pame H. 9.3km/h 129W 2:43